Time;durP1;ratioP1;P1;durP2;ratioP2;P2;SDS_P1;SDS_P2;PMS_P1;PMS_P2;Temp;Humidity;BMP_temperature;BMP_pressure;BME280_temperature;BME280_humidity;BME280_pressure;Samples;Min_cycle;Max_cycle;Signal;HPM_P1;HPM_P2
2023/08/08 00:02:17;;;;;;;20.65;9.68;;;;;;;29.80;nan;97084.75;5086530;28;20055;-64
2023/08/08 00:04:49;;;;;;;19.42;10.00;;;;;;;29.82;nan;97082.47;5086876;28;20051;-64
2023/08/08 00:07:18;;;;;;;21.67;9.48;;;;;;;29.82;nan;97087.94;5084005;28;20044;-63
2023/08/08 00:09:47;;;;;;;27.95;9.38;;;;;;;29.82;nan;97093.41;5087286;28;20044;-63
2023/08/08 00:12:17;;;;;;;21.40;8.70;;;;;;;29.80;nan;97091.00;5085854;28;20113;-63
2023/08/08 00:14:46;;;;;;;23.63;9.32;;;;;;;29.81;nan;97089.88;5087057;28;20131;-64
2023/08/08 00:17:15;;;;;;;27.42;10.60;;;;;;;29.82;nan;97087.94;5086038;28;20059;-64
2023/08/08 00:19:44;;;;;;;24.83;11.13;;;;;;;29.84;nan;97083.69;5087357;28;20056;-63
2023/08/08 00:22:14;;;;;;;25.33;11.25;;;;;;;29.84;nan;97096.53;5085040;28;20048;-64
2023/08/08 00:24:43;;;;;;;26.20;10.07;;;;;;;29.87;nan;97095.84;5079064;28;21259;-64
2023/08/08 00:27:12;;;;;;;24.98;10.40;;;;;;;29.86;nan;97095.06;5085944;28;20044;-64
2023/08/08 00:29:41;;;;;;;26.23;9.63;;;;;;;29.87;nan;97098.56;5085647;28;20063;-64
2023/08/08 00:32:12;;;;;;;27.42;11.20;;;;;;;29.88;nan;97090.03;5084821;28;20059;-63
2023/08/08 00:34:42;;;;;;;21.90;10.05;;;;;;;29.88;nan;97095.50;5085741;28;20052;-63
2023/08/08 00:37:11;;;;;;;23.65;10.85;;;;;;;29.91;nan;97101.41;5087052;28;20036;-64
2023/08/08 00:39:45;;;;;;;27.58;11.27;;;;;;;29.89;nan;97104.47;5085385;28;20169;-63
2023/08/08 00:42:15;;;;;;;31.02;9.40;;;;;;;29.92;nan;97109.22;5085461;28;20776;-63
2023/08/08 00:44:44;;;;;;;29.10;10.07;;;;;;;29.91;nan;97107.66;5083334;28;20044;-64
2023/08/08 00:47:13;;;;;;;26.92;9.05;;;;;;;29.93;nan;97099.91;5084417;28;20059;-63
2023/08/08 00:49:46;;;;;;;19.27;8.68;;;;;;;29.94;nan;97108.88;5086589;28;20032;-64
2023/08/08 00:52:15;;;;;;;19.35;8.93;;;;;;;29.94;nan;97117.88;5085512;28;20054;-64
2023/08/08 00:54:46;;;;;;;24.85;10.75;;;;;;;29.98;nan;97118.72;5076462;28;20032;-63
2023/08/08 00:57:15;;;;;;;26.67;9.90;;;;;;;30.00;nan;97123.84;5075229;28;20089;-64
2023/08/08 00:59:44;;;;;;;26.63;9.05;;;;;;;30.01;nan;97123.47;5085121;28;20151;-64
2023/08/08 01:02:15;;;;;;;26.02;9.95;;;;;;;30.04;nan;97124.72;5080317;28;20044;-64
2023/08/08 01:04:45;;;;;;;28.08;9.82;;;;;;;30.07;nan;97121.25;5085931;28;20050;-64
2023/08/08 01:07:31;;;;;;;30.00;11.80;;;;;;;30.08;nan;97122.84;5086411;28;20036;-63
2023/08/08 01:10:09;;;;;;;28.17;9.40;;;;;;;30.11;nan;97133.84;5085707;28;20079;-63
2023/08/08 01:12:53;;;;;;;26.08;9.30;;;;;;;30.15;nan;97125.72;5084394;28;20055;-63
2023/08/08 01:15:24;;;;;;;32.25;10.15;;;;;;;30.13;nan;97120.63;5083918;28;20105;-63
2023/08/08 01:17:54;;;;;;;25.98;9.68;;;;;;;30.16;nan;97130.81;5082544;28;20664;-63
2023/08/08 01:20:24;;;;;;;25.25;11.02;;;;;;;30.20;nan;97133.63;5083497;28;20044;-64
2023/08/08 01:23:24;;;;;;;32.63;8.82;;;;;;;30.23;nan;97133.69;5084574;28;20036;-63
2023/08/08 01:25:57;;;;;;;27.20;10.20;;;;;;;30.27;nan;97134.56;5083611;28;20112;-63
2023/08/08 01:28:27;;;;;;;26.97;10.23;;;;;;;30.31;nan;97140.13;5085171;28;20040;-63
2023/08/08 01:30:57;;;;;;;27.75;9.30;;;;;;;30.38;nan;97142.19;5084929;28;20040;-64
2023/08/08 01:33:26;;;;;;;22.75;9.35;;;;;;;30.43;nan;97139.16;5083284;28;20044;-63
2023/08/08 01:36:03;;;;;;;23.23;10.63;;;;;;;30.46;nan;97133.00;5083495;28;20080;-63
2023/08/08 01:38:36;;;;;;;34.10;10.52;;;;;;;30.51;nan;97130.00;5083146;28;20067;-63
2023/08/08 01:41:08;;;;;;;29.02;12.77;;;;;;;30.57;nan;97139.50;5067947;28;20055;-63
2023/08/08 01:43:38;;;;;;;29.38;12.45;;;;;;;30.55;nan;97145.31;5084448;28;20047;-63
2023/08/08 01:46:09;;;;;;;28.05;9.57;;;;;;;30.66;nan;97149.06;5082824;28;20048;-64
2023/08/08 01:48:39;;;;;;;25.80;10.57;;;;;;;30.73;nan;97148.38;5083836;28;20185;-63
2023/08/08 01:51:08;;;;;;;27.92;10.52;;;;;;;30.80;nan;97148.53;5067156;28;20044;-64
2023/08/08 01:53:37;;;;;;;25.42;9.57;;;;;;;30.86;nan;97149.00;5083081;28;20138;-64
2023/08/08 01:56:08;;;;;;;27.38;11.20;;;;;;;30.93;nan;97151.91;5083235;28;20040;-63
2023/08/08 01:58:37;;;;;;;32.17;12.25;;;;;;;30.97;nan;97159.00;5085347;28;20131;-64
2023/08/08 02:01:07;;;;;;;28.77;11.30;;;;;;;31.09;nan;97158.06;5083529;28;20072;-63
2023/08/08 02:03:36;;;;;;;34.03;10.55;;;;;;;31.09;nan;97158.88;5083580;28;20134;-64
2023/08/08 02:06:06;;;;;;;25.48;10.68;;;;;;;31.14;nan;97164.03;5084192;28;20761;-64
2023/08/08 02:08:35;;;;;;;23.00;9.98;;;;;;;31.26;nan;97167.75;5083662;28;20189;-64
2023/08/08 02:11:04;;;;;;;31.13;10.90;;;;;;;31.36;nan;97167.13;5084406;28;20371;-63
2023/08/08 02:13:34;;;;;;;29.55;10.98;;;;;;;31.40;nan;97178.94;5083686;28;20043;-64
2023/08/08 02:16:04;;;;;;;28.52;10.00;;;;;;;31.64;nan;97182.09;5083557;28;20139;-63
2023/08/08 02:18:34;;;;;;;22.30;9.75;;;;;;;31.78;nan;97187.00;5083480;28;20051;-64
2023/08/08 02:21:03;;;;;;;22.70;10.30;;;;;;;31.75;nan;97192.44;5079425;28;20052;-64
2023/08/08 02:23:33;;;;;;;26.25;10.90;;;;;;;31.66;nan;97192.69;5081495;28;20137;-63
2023/08/08 02:26:02;;;;;;;28.45;11.50;;;;;;;31.59;nan;97200.81;5083822;28;20068;-63
2023/08/08 02:28:33;;;;;;;23.60;11.18;;;;;;;31.43;nan;97197.34;5085256;28;20059;-63
2023/08/08 02:31:02;;;;;;;31.25;11.55;;;;;;;31.35;nan;97199.19;5081630;28;20044;-64
2023/08/08 02:33:31;;;;;;;25.52;11.55;;;;;;;31.39;nan;97205.50;5082692;28;20090;-63
2023/08/08 02:36:01;;;;;;;35.72;12.25;;;;;;;31.41;nan;97208.69;5082503;28;20054;-63
2023/08/08 02:38:30;;;;;;;29.38;11.52;;;;;;;31.32;nan;97210.06;5082820;28;20044;-64
2023/08/08 02:41:00;;;;;;;22.95;10.90;;;;;;;31.27;nan;97204.91;5083802;28;20044;-63
2023/08/08 02:43:30;;;;;;;33.15;12.15;;;;;;;31.26;nan;97206.03;5081768;28;20154;-63
2023/08/08 02:45:59;;;;;;;31.40;13.50;;;;;;;31.22;nan;97222.41;5084917;28;20055;-63
2023/08/08 02:48:30;;;;;;;34.00;13.23;;;;;;;31.10;nan;97212.44;5083752;28;20059;-64
2023/08/08 02:51:00;;;;;;;29.38;11.57;;;;;;;31.18;nan;97211.41;5082592;28;20059;-63
2023/08/08 02:53:29;;;;;;;41.08;12.15;;;;;;;31.24;nan;97219.31;5074232;28;20079;-64
2023/08/08 02:55:59;;;;;;;32.53;12.77;;;;;;;31.23;nan;97226.72;5083857;28;20071;-63
2023/08/08 02:58:32;;;;;;;39.42;14.02;;;;;;;31.29;nan;97227.22;5083116;28;20490;-64
2023/08/08 03:01:02;;;;;;;33.97;12.43;;;;;;;31.40;nan;97228.19;5082385;28;20044;-63
2023/08/08 03:03:32;;;;;;;35.42;13.18;;;;;;;31.48;nan;97227.16;5083051;28;20117;-64
2023/08/08 03:06:02;;;;;;;36.63;14.48;;;;;;;31.57;nan;97225.00;5065547;28;20058;-65
2023/08/08 03:08:32;;;;;;;35.67;12.52;;;;;;;31.68;nan;97223.25;5082834;28;20052;-64
2023/08/08 03:11:01;;;;;;;33.95;11.35;;;;;;;31.83;nan;97233.25;5083520;28;20206;-65
2023/08/08 03:13:31;;;;;;;32.13;11.07;;;;;;;31.91;nan;97229.47;5082688;28;20040;-64
2023/08/08 03:16:01;;;;;;;25.23;9.35;;;;;;;32.07;nan;97232.06;5077528;28;20036;-63
2023/08/08 03:18:30;;;;;;;30.27;9.27;;;;;;;32.13;nan;97224.38;5079909;28;20036;-63
2023/08/08 03:21:00;;;;;;;25.08;9.43;;;;;;;32.14;nan;97220.44;5081771;28;20071;-64
2023/08/08 03:23:33;;;;;;;;;;;;;;;32.18;nan;97226.75;5082444;28;20059;-64
2023/08/08 03:26:03;;;;;;;33.70;8.75;;;;;;;32.25;nan;97224.94;5082629;28;19924;-64
2023/08/08 03:28:33;;;;;;;28.52;9.65;;;;;;;32.43;nan;97234.19;5082401;28;20051;-63
2023/08/08 03:31:04;;;;;;;37.72;9.38;;;;;;;32.50;nan;97230.75;5065815;28;20036;-64
2023/08/08 03:33:33;;;;;;;32.75;10.10;;;;;;;32.49;nan;97232.69;5080043;28;20048;-64
2023/08/08 03:36:06;;;;;;;41.28;9.63;;;;;;;32.56;nan;97242.97;5081433;28;20449;-64
2023/08/08 03:38:37;;;;;;;29.75;9.65;;;;;;;32.57;nan;97232.81;5083342;28;20136;-62
2023/08/08 03:41:08;;;;;;;41.72;11.95;;;;;;;32.63;nan;97240.34;5066596;28;20123;-65
2023/08/08 03:43:38;;;;;;;42.03;11.43;;;;;;;32.79;nan;97242.91;5082092;28;20572;-65
2023/08/08 03:46:07;;;;;;;33.63;11.75;;;;;;;32.85;nan;97239.44;5082518;28;20036;-65
2023/08/08 03:48:37;;;;;;;31.88;10.75;;;;;;;32.92;nan;97247.00;5080312;28;20044;-65
2023/08/08 03:51:06;;;;;;;37.25;11.18;;;;;;;32.99;nan;97249.81;5081547;28;20443;-65
2023/08/08 03:53:37;;;;;;;30.23;10.57;;;;;;;33.09;nan;97237.38;5080379;28;20036;-65
2023/08/08 03:56:07;;;;;;;45.08;12.05;;;;;;;33.17;nan;97248.09;5083548;28;20040;-65
2023/08/08 03:58:38;;;;;;;33.67;10.75;;;;;;;33.18;nan;97252.41;5079962;28;20515;-65
2023/08/08 04:01:07;;;;;;;32.83;11.52;;;;;;;33.24;nan;97250.91;5081633;28;20109;-65
2023/08/08 04:03:37;;;;;;;52.83;14.02;;;;;;;33.03;nan;97252.59;5081188;28;20406;-64
2023/08/08 04:06:07;;;;;;;35.38;11.80;;;;;;;33.16;nan;97253.94;5079081;28;20114;-65
2023/08/08 04:08:37;;;;;;;46.28;10.98;;;;;;;33.16;nan;97252.00;5082379;28;20474;-65
2023/08/08 04:11:08;;;;;;;49.85;10.27;;;;;;;33.10;nan;97245.25;5081897;28;20040;-65
2023/08/08 04:13:38;;;;;;;46.20;12.40;;;;;;;33.22;nan;97253.25;5081047;28;20050;-65
2023/08/08 04:16:07;;;;;;;41.67;12.55;;;;;;;33.21;nan;97259.09;5072051;28;20044;-65
2023/08/08 04:18:37;;;;;;;44.75;11.88;;;;;;;33.17;nan;97261.81;5082520;28;20129;-65
2023/08/08 04:21:06;;;;;;;35.60;10.02;;;;;;;33.25;nan;97257.97;5085415;28;20105;-66
2023/08/08 04:23:36;;;;;;;40.65;10.57;;;;;;;33.43;nan;97263.66;5086833;28;20035;-64
2023/08/08 04:26:05;;;;;;;45.05;9.88;;;;;;;33.38;nan;97267.53;5084439;28;20044;-64
2023/08/08 04:28:34;;;;;;;47.55;9.68;;;;;;;33.56;nan;97269.66;5086826;28;20043;-65
2023/08/08 04:31:04;;;;;;;37.05;9.40;;;;;;;33.70;nan;97267.06;5086589;28;20044;-66
2023/08/08 04:33:33;;;;;;;40.78;9.57;;;;;;;33.58;nan;97276.38;5087557;28;20455;-65
2023/08/08 04:36:02;;;;;;;43.95;9.65;;;;;;;33.64;nan;97269.34;5084130;28;20055;-65
2023/08/08 04:38:32;;;;;;;38.22;10.45;;;;;;;33.84;nan;97269.94;5085858;28;20161;-65
2023/08/08 04:41:01;;;;;;;40.72;9.10;;;;;;;33.90;nan;97279.44;5087171;28;20036;-66
2023/08/08 04:43:30;;;;;;;45.03;9.02;;;;;;;34.06;nan;97287.41;5084667;28;20048;-65
2023/08/08 04:45:59;;;;;;;34.58;8.93;;;;;;;34.29;nan;97279.75;5085763;28;20059;-65
2023/08/08 04:48:29;;;;;;;47.25;9.05;;;;;;;34.40;nan;97280.59;5086163;28;20044;-65
2023/08/08 04:50:58;;;;;;;53.03;10.45;;;;;;;34.48;nan;97279.47;5085526;28;20126;-66
2023/08/08 04:53:28;;;;;;;41.88;8.38;;;;;;;34.50;nan;97284.59;5085389;28;20091;-65
2023/08/08 04:55:57;;;;;;;45.28;9.70;;;;;;;34.48;nan;97282.22;5084656;28;20209;-65
2023/08/08 04:58:27;;;;;;;39.22;8.48;;;;;;;34.38;nan;97282.16;5067018;28;20047;-66
2023/08/08 05:00:57;;;;;;;41.45;9.18;;;;;;;34.42;nan;97280.22;5085936;28;20534;-65
2023/08/08 05:03:26;;;;;;;41.65;11.30;;;;;;;34.42;nan;97282.97;5085937;28;20058;-64
2023/08/08 05:05:56;;;;;;;45.47;9.88;;;;;;;34.31;nan;97288.38;5082862;28;20168;-64
2023/08/08 05:08:25;;;;;;;47.90;9.13;;;;;;;34.29;nan;97288.00;5081927;28;20613;-64
2023/08/08 05:10:55;;;;;;;37.08;8.23;;;;;;;34.38;nan;97293.97;5083424;28;20044;-64
2023/08/08 05:13:24;;;;;;;43.88;8.52;;;;;;;34.89;nan;97293.09;5085045;28;20067;-63
2023/08/08 05:16:00;;;;;;;37.55;7.53;;;;;;;34.91;nan;97301.75;5083027;28;20102;-64
2023/08/08 05:18:29;;;;;;;36.33;7.60;;;;;;;34.88;nan;97294.25;5085432;28;20493;-64
2023/08/08 05:20:59;;;;;;;46.50;7.82;;;;;;;34.80;nan;97298.16;5084398;28;20950;-63
2023/08/08 05:23:29;;;;;;;37.05;9.13;;;;;;;35.17;nan;97292.44;5067437;28;20742;-64
2023/08/08 05:25:58;;;;;;;35.78;9.38;;;;;;;35.14;nan;97294.75;5067362;28;20223;-63
2023/08/08 05:28:28;;;;;;;45.13;9.73;;;;;;;35.09;nan;97294.38;5066050;28;20055;-63
2023/08/08 05:30:59;;;;;;;37.60;8.40;;;;;;;35.36;nan;97300.38;5068155;28;20040;-65
2023/08/08 05:33:28;;;;;;;34.33;7.70;;;;;;;35.52;nan;97293.34;5083896;28;20044;-64
2023/08/08 05:35:59;;;;;;;34.58;8.10;;;;;;;35.75;nan;97297.72;5084786;28;20055;-64
2023/08/08 05:38:29;;;;;;;39.83;7.97;;;;;;;35.76;nan;97308.34;5083252;28;20044;-64
2023/08/08 05:40:58;;;;;;;48.47;9.38;;;;;;;35.78;nan;97305.22;5083221;28;20044;-64
2023/08/08 05:43:28;;;;;;;47.80;8.70;;;;;;;35.44;nan;97297.25;5082974;28;20060;-64
2023/08/08 05:45:58;;;;;;;44.13;9.13;;;;;;;35.71;nan;97294.19;5068134;28;20054;-62
2023/08/08 05:48:28;;;;;;;39.30;8.05;;;;;;;35.94;nan;97295.38;5083424;28;20487;-62
2023/08/08 05:50:58;;;;;;;35.80;9.05;;;;;;;36.14;nan;97298.56;5085601;28;20060;-63
2023/08/08 05:53:28;;;;;;;40.72;10.70;;;;;;;36.18;nan;97282.81;5080729;28;20364;-63
2023/08/08 05:55:57;;;;;;;36.63;8.05;;;;;;;35.88;nan;97298.94;5082795;28;20570;-63
2023/08/08 05:58:27;;;;;;;41.47;7.72;;;;;;;35.85;nan;97297.72;5083388;28;20467;-64
2023/08/08 06:00:56;;;;;;;36.65;7.93;;;;;;;36.01;nan;97287.13;5081620;28;20063;-65
2023/08/08 06:03:26;;;;;;;40.10;8.65;;;;;;;35.76;nan;97302.06;5082630;28;20121;-64
2023/08/08 06:05:56;;;;;;;39.03;9.98;;;;;;;35.66;nan;97291.81;5080122;28;20105;-63
2023/08/08 06:08:25;;;;;;;40.60;8.63;;;;;;;35.98;nan;97293.41;5081084;28;20040;-63
2023/08/08 06:10:55;;;;;;;35.55;8.88;;;;;;;36.01;nan;97286.31;5079949;28;20066;-63
2023/08/08 06:13:24;;;;;;;37.60;9.95;;;;;;;36.01;nan;97278.06;5081304;28;20083;-63
2023/08/08 06:15:53;;;;;;;52.05;10.07;;;;;;;36.00;nan;97287.50;5066751;28;20048;-63
2023/08/08 06:18:23;;;;;;;38.55;9.40;;;;;;;36.26;nan;97287.13;5083704;28;20375;-65
2023/08/08 06:20:52;;;;;;;43.33;9.65;;;;;;;35.76;nan;97296.56;5080669;28;20044;-64
2023/08/08 06:23:23;;;;;;;43.15;9.32;;;;;;;35.24;nan;97293.25;5079538;28;20054;-64
2023/08/08 06:25:52;;;;;;;40.97;9.15;;;;;;;35.05;nan;97291.56;5077205;28;20051;-64
2023/08/08 06:28:22;;;;;;;39.00;9.20;;;;;;;35.43;nan;97284.66;5066927;28;20130;-64
2023/08/08 06:30:51;;;;;;;36.38;9.35;;;;;;;35.64;nan;97289.44;5080448;28;20047;-64
2023/08/08 06:33:20;;;;;;;37.95;9.45;;;;;;;35.59;nan;97287.81;5078547;28;20048;-63
2023/08/08 06:35:50;;;;;;;37.15;10.25;;;;;;;35.73;nan;97286.31;5080291;28;20100;-62
2023/08/08 06:38:19;;;;;;;37.88;10.18;;;;;;;35.52;nan;97287.03;5083400;28;20040;-62
2023/08/08 06:40:49;;;;;;;51.70;10.10;;;;;;;35.74;nan;97285.13;5084077;28;20036;-64
2023/08/08 06:43:18;;;;;;;43.60;10.25;;;;;;;35.77;nan;97281.56;5080010;28;20395;-63
2023/08/08 06:45:48;;;;;;;40.40;10.20;;;;;;;35.83;nan;97285.53;5079381;28;20047;-63
2023/08/08 06:48:17;;;;;;;41.05;12.02;;;;;;;35.57;nan;97289.41;5078414;28;20039;-64
2023/08/08 06:50:46;;;;;;;38.58;10.88;;;;;;;35.50;nan;97287.41;5082124;28;20151;-64
2023/08/08 06:53:15;;;;;;;37.60;10.00;;;;;;;35.95;nan;97296.94;5082324;28;20101;-63
2023/08/08 06:55:45;;;;;;;45.83;10.15;;;;;;;35.81;nan;97290.63;5080178;28;20051;-66
2023/08/08 06:58:14;;;;;;;32.92;8.98;;;;;;;35.95;nan;97287.88;5083012;28;20048;-64
2023/08/08 07:00:43;;;;;;;31.40;9.15;;;;;;;35.91;nan;97282.38;5084288;28;20036;-64
2023/08/08 07:03:12;;;;;;;47.03;9.88;;;;;;;35.87;nan;97278.06;5076700;28;20062;-63
2023/08/08 07:05:42;;;;;;;37.03;10.20;;;;;;;35.88;nan;97276.88;5080458;28;20698;-63
2023/08/08 07:08:11;;;;;;;33.42;9.20;;;;;;;35.68;nan;97273.69;5069126;28;20067;-63
2023/08/08 07:10:41;;;;;;;35.22;10.70;;;;;;;35.69;nan;97271.75;5079078;28;20044;-62
2023/08/08 07:13:11;;;;;;;33.33;10.32;;;;;;;35.48;nan;97265.00;5081528;28;20044;-63
2023/08/08 07:15:41;;;;;;;38.42;8.75;;;;;;;35.67;nan;97263.88;5064583;28;20047;-63
2023/08/08 07:18:10;;;;;;;37.08;8.35;;;;;;;35.94;nan;97265.06;5063202;28;20069;-63
2023/08/08 07:20:39;;;;;;;41.25;11.27;;;;;;;35.97;nan;97266.25;5078400;28;20467;-65
2023/08/08 07:23:08;;;;;;;33.17;9.55;;;;;;;36.10;nan;97269.38;5079977;28;20410;-62
2023/08/08 07:25:39;;;;;;;40.08;11.50;;;;;;;36.02;nan;97265.84;5082116;28;20655;-64
2023/08/08 07:28:09;;;;;;;32.78;9.23;;;;;;;36.02;nan;97263.88;5081704;28;20106;-67
2023/08/08 07:30:38;;;;;;;33.40;10.00;;;;;;;36.15;nan;97272.56;5080618;28;20412;-64
2023/08/08 07:33:10;;;;;;;27.27;9.43;;;;;;;36.21;nan;97262.69;5079632;28;20070;-62
2023/08/08 07:35:41;;;;;;;36.60;9.73;;;;;;;35.66;nan;97259.53;5079070;28;20044;-62
2023/08/08 07:38:10;;;;;;;34.90;9.80;;;;;;;35.83;nan;97271.75;5078910;28;20367;-64
2023/08/08 07:40:40;;;;;;;38.60;11.18;;;;;;;35.82;nan;97261.91;5079263;28;20071;-64
2023/08/08 07:43:10;;;;;;;36.03;10.13;;;;;;;36.12;nan;97269.78;5081227;28;20052;-65
2023/08/08 07:45:42;;;;;;;34.45;8.38;;;;;;;36.14;nan;97261.94;5081040;28;20128;-65
2023/08/08 07:48:12;;;;;;;41.03;9.55;;;;;;;35.78;nan;97261.13;5080881;28;20090;-65
2023/08/08 07:50:41;;;;;;;43.42;11.27;;;;;;;35.57;nan;97264.63;5076571;28;20097;-65
2023/08/08 07:53:11;;;;;;;28.50;9.57;;;;;;;35.84;nan;97256.81;5078707;28;20481;-65
2023/08/08 07:55:45;;;;;;;27.27;8.80;;;;;;;35.93;nan;97259.94;5083523;28;20661;-63
2023/08/08 07:58:15;;;;;;;34.72;9.95;;;;;;;36.03;nan;97250.88;5082977;28;20093;-66
2023/08/08 08:00:44;;;;;;;37.53;10.23;;;;;;;36.11;nan;97252.47;5084985;28;20123;-64
2023/08/08 08:03:14;;;;;;;42.42;11.27;;;;;;;36.11;nan;97257.19;5067274;28;20036;-65
2023/08/08 08:05:43;;;;;;;33.80;8.68;;;;;;;36.08;nan;97253.22;5080625;28;20052;-67
2023/08/08 08:08:12;;;;;;;30.30;8.32;;;;;;;36.07;nan;97265.44;5078388;28;20054;-65
2023/08/08 08:10:42;;;;;;;32.10;8.88;;;;;;;35.95;nan;97261.13;5062297;28;20044;-65
2023/08/08 08:13:12;;;;;;;32.65;9.82;;;;;;;35.90;nan;97256.00;5077870;28;20044;-67
2023/08/08 08:15:41;;;;;;;32.72;9.40;;;;;;;36.07;nan;97262.69;5083325;28;20378;-64
2023/08/08 08:18:12;;;;;;;30.63;9.77;;;;;;;35.89;nan;97261.94;5074932;28;20048;-67
2023/08/08 08:20:47;;;;;;;36.80;9.87;;;;;;;35.88;nan;97254.81;5079594;28;21204;-65
2023/08/08 08:23:16;;;;;;;32.75;9.43;;;;;;;35.95;nan;97243.78;5081859;28;20319;-65
2023/08/08 08:25:48;;;;;;;29.85;9.32;;;;;;;35.72;nan;97246.16;5086375;28;20060;-65
2023/08/08 08:28:20;;;;;;;41.88;9.30;;;;;;;35.77;nan;97245.75;5085345;28;20356;-63
2023/08/08 08:30:49;;;;;;;38.10;9.23;;;;;;;35.97;nan;97252.47;5080484;28;20051;-65
2023/08/08 08:33:19;;;;;;;27.50;8.50;;;;;;;35.94;nan;97248.50;5083970;28;20043;-65
2023/08/08 08:35:48;;;;;;;30.77;8.70;;;;;;;35.66;nan;97245.78;5082548;28;20164;-65
2023/08/08 08:38:17;;;;;;;34.85;8.80;;;;;;;35.56;nan;97250.06;5080792;28;20103;-67
2023/08/08 08:40:48;;;;;;;30.70;8.32;;;;;;;35.45;nan;97234.69;5084998;28;20089;-68
2023/08/08 08:43:18;;;;;;;30.90;8.70;;;;;;;35.57;nan;97237.88;5084807;28;20032;-66
2023/08/08 08:45:52;;;;;;;35.30;9.95;;;;;;;35.71;nan;97236.31;5083165;28;20093;-66
2023/08/08 08:48:22;;;;;;;29.67;8.52;;;;;;;35.82;nan;97234.34;5080475;28;20056;-66
2023/08/08 08:50:52;;;;;;;29.90;8.60;;;;;;;35.89;nan;97231.59;5082926;28;20609;-67
2023/08/08 08:53:22;;;;;;;34.35;9.00;;;;;;;35.92;nan;97234.34;5080764;28;20122;-66
2023/08/08 08:55:53;;;;;;;31.80;9.50;;;;;;;36.01;nan;97232.00;5065832;28;20469;-66
2023/08/08 08:58:24;;;;;;;37.45;9.32;;;;;;;36.07;nan;97237.09;5083510;28;20055;-67
2023/08/08 09:00:55;;;;;;;42.90;9.18;;;;;;;36.11;nan;97248.91;5084709;28;20044;-66
2023/08/08 09:03:26;;;;;;;29.67;8.10;;;;;;;36.06;nan;97244.59;5083227;28;20180;-66
2023/08/08 09:05:57;;;;;;;27.17;9.10;;;;;;;36.13;nan;97232.78;5083566;28;20044;-65
2023/08/08 09:08:27;;;;;;;27.25;8.52;;;;;;;36.18;nan;97235.94;5084499;28;20764;-66
2023/08/08 09:10:57;;;;;;;30.25;8.65;;;;;;;36.12;nan;97244.97;5082397;28;20040;-65
2023/08/08 09:13:26;;;;;;;35.65;8.48;;;;;;;36.09;nan;97232.75;5084283;28;20063;-66
2023/08/08 09:15:56;;;;;;;31.00;8.45;;;;;;;36.19;nan;97225.69;5078930;28;20082;-67
2023/08/08 09:18:25;;;;;;;27.25;8.15;;;;;;;36.07;nan;97224.09;5083932;28;20603;-68
2023/08/08 09:20:54;;;;;;;39.60;9.15;;;;;;;36.07;nan;97224.09;5083446;28;20047;-66
2023/08/08 09:23:24;;;;;;;26.98;8.55;;;;;;;35.85;nan;97228.06;5080528;28;20052;-67
2023/08/08 09:25:53;;;;;;;36.28;8.20;;;;;;;35.95;nan;97224.50;5083347;28;20063;-66
2023/08/08 09:28:23;;;;;;;32.55;7.82;;;;;;;35.97;nan;97219.38;5083471;28;20048;-68
2023/08/08 09:30:53;;;;;;;30.20;7.90;;;;;;;36.08;nan;97220.16;5083218;28;20741;-66
2023/08/08 09:33:23;;;;;;;27.92;7.88;;;;;;;36.02;nan;97217.03;5079101;28;20134;-66
2023/08/08 09:35:54;;;;;;;35.38;8.75;;;;;;;36.12;nan;97203.63;5080516;28;20059;-67
2023/08/08 09:38:24;;;;;;;30.67;8.00;;;;;;;36.15;nan;97211.91;5080788;28;20650;-67
2023/08/08 09:40:53;;;;;;;27.02;7.85;;;;;;;36.16;nan;97215.47;5083556;28;20160;-66
2023/08/08 09:43:23;;;;;;;30.73;8.23;;;;;;;36.14;nan;97207.56;5076679;28;20690;-66
2023/08/08 09:45:53;;;;;;;30.83;7.43;;;;;;;36.08;nan;97208.34;5079733;28;20044;-66
2023/08/08 09:48:23;;;;;;;30.88;8.48;;;;;;;36.03;nan;97207.56;5061300;28;20117;-67
2023/08/08 09:50:53;;;;;;;31.95;8.57;;;;;;;35.98;nan;97212.69;5080453;28;20054;-65
2023/08/08 09:53:24;;;;;;;27.63;7.75;;;;;;;36.13;nan;97217.03;5079207;28;20570;-63
2023/08/08 09:55:57;;;;;;;31.38;8.40;;;;;;;36.04;nan;97213.84;5078580;28;20048;-65
2023/08/08 09:58:27;;;;;;;32.53;8.05;;;;;;;35.99;nan;97201.25;5080438;28;20048;-65
2023/08/08 10:00:58;;;;;;;35.65;9.07;;;;;;;35.99;nan;97215.03;5080911;28;20538;-64
2023/08/08 10:03:28;;;;;;;26.27;8.05;;;;;;;36.10;nan;97212.28;5081925;28;20052;-66
2023/08/08 10:05:58;;;;;;;39.30;8.70;;;;;;;36.06;nan;97203.22;5079134;28;20059;-65
2023/08/08 10:08:27;;;;;;;29.75;8.48;;;;;;;35.99;nan;97205.97;5076072;28;20094;-66
2023/08/08 10:10:58;;;;;;;32.75;7.35;;;;;;;35.96;nan;97201.28;5074086;28;20048;-66
2023/08/08 10:13:28;;;;;;;44.95;10.20;;;;;;;35.97;nan;97205.59;5081898;28;20063;-65
2023/08/08 10:15:57;;;;;;;29.35;9.15;;;;;;;36.01;nan;97207.19;5078239;28;20058;-65
2023/08/08 10:18:28;;;;;;;30.05;8.93;;;;;;;35.97;nan;97202.84;5062014;28;20130;-63
2023/08/08 10:20:58;;;;;;;34.20;8.35;;;;;;;35.92;nan;97203.25;5081365;28;20048;-64
2023/08/08 10:23:39;;;;;;;34.55;8.45;;;;;;;35.84;nan;97209.94;5076504;28;20063;-64
2023/08/08 10:26:21;;;;;;;30.90;8.68;;;;;;;35.78;nan;97206.78;5080157;28;20062;-65
2023/08/08 10:28:58;;;;;;;36.63;8.33;;;;;;;35.89;nan;97215.06;5063747;28;20131;-64
2023/08/08 10:31:33;;;;;;;29.02;7.65;;;;;;;35.84;nan;97218.22;5080498;28;20805;-65
2023/08/08 10:34:05;;;;;;;32.95;7.82;;;;;;;35.85;nan;97209.53;5081730;28;20050;-66
2023/08/08 10:36:55;;;;;;;36.58;7.80;;;;;;;35.86;nan;97200.09;5079723;28;20067;-66
2023/08/08 10:39:25;;;;;;;30.13;9.13;;;;;;;35.85;nan;97204.03;5078463;28;20206;-64
2023/08/08 10:42:00;;;;;;;27.13;9.18;;;;;;;35.81;nan;97206.00;5081485;28;20093;-64
2023/08/08 10:44:31;;;;;;;28.05;8.13;;;;;;;35.83;nan;97202.84;5075485;28;20126;-65
2023/08/08 10:47:01;;;;;;;37.88;10.00;;;;;;;35.85;nan;97208.78;5078072;28;20169;-64
2023/08/08 10:49:31;;;;;;;27.27;8.68;;;;;;;35.82;nan;97209.53;5080575;28;20082;-64
2023/08/08 10:52:03;;;;;;;25.77;7.72;;;;;;;35.75;nan;97207.59;5082614;28;20101;-65
2023/08/08 10:54:33;;;;;;;31.55;8.50;;;;;;;35.73;nan;97198.91;5081732;28;20052;-63
2023/08/08 10:57:03;;;;;;;29.67;8.45;;;;;;;35.73;nan;97201.69;5081339;28;20056;-64
2023/08/08 10:59:39;;;;;;;28.38;8.02;;;;;;;35.70;nan;97193.41;5079587;28;20431;-64
2023/08/08 11:02:09;;;;;;;24.80;7.90;;;;;;;35.62;nan;97192.59;5077839;28;20040;-64
2023/08/08 11:04:41;;;;;;;33.28;9.07;;;;;;;35.60;nan;97189.44;5083503;28;20044;-64
2023/08/08 11:07:11;;;;;;;23.58;7.82;;;;;;;35.56;nan;97194.97;5081576;28;20032;-66
2023/08/08 11:09:40;;;;;;;30.00;8.82;;;;;;;35.54;nan;97194.56;5082665;28;20044;-65
2023/08/08 11:12:16;;;;;;;25.75;8.25;;;;;;;35.49;nan;97194.19;5076459;28;20101;-65
2023/08/08 11:14:45;;;;;;;29.40;8.52;;;;;;;35.50;nan;97195.72;5082612;28;20048;-65
2023/08/08 11:17:15;;;;;;;29.40;7.10;;;;;;;35.47;nan;97191.81;5079146;28;20040;-69
2023/08/08 11:19:44;;;;;;;22.45;7.60;;;;;;;35.45;nan;97193.41;5075848;28;20078;-64
2023/08/08 11:22:14;;;;;;;21.45;6.90;;;;;;;35.45;nan;97188.66;5076069;28;20044;-67
2023/08/08 11:24:51;;;;;;;26.35;7.28;;;;;;;35.44;nan;97191.81;5046310;28;20055;-65
2023/08/08 11:27:24;;;;;;;23.30;8.70;;;;;;;35.40;nan;97185.50;5074613;28;20690;-66
2023/08/08 11:29:57;;;;;;;35.15;7.80;;;;;;;35.41;nan;97193.38;5083877;28;20110;-69
2023/08/08 11:32:28;;;;;;;33.88;7.72;;;;;;;35.42;nan;97194.94;5084903;28;20048;-68
2023/08/08 11:34:57;;;;;;;33.95;7.63;;;;;;;35.40;nan;97186.31;5083490;28;21004;-66
2023/08/08 11:37:27;;;;;;;27.08;7.45;;;;;;;35.39;nan;97195.75;5084286;28;20055;-67
2023/08/08 11:39:57;;;;;;;25.08;7.82;;;;;;;35.31;nan;97193.38;5082350;28;20055;-67
2023/08/08 11:42:27;;;;;;;37.88;8.73;;;;;;;35.26;nan;97196.50;5085829;28;20059;-65
2023/08/08 11:44:56;;;;;;;31.45;7.90;;;;;;;35.23;nan;97198.06;5069051;28;20044;-67
2023/08/08 11:47:26;;;;;;;25.13;5.88;;;;;;;35.20;nan;97198.84;5083444;28;20040;-63
2023/08/08 11:49:57;;;;;;;24.88;6.38;;;;;;;35.13;nan;97194.09;5085336;28;20121;-63
2023/08/08 11:52:30;;;;;;;23.98;6.78;;;;;;;35.13;nan;97190.56;5080673;28;20582;-64
2023/08/08 11:55:00;;;;;;;33.97;7.63;;;;;;;35.13;nan;97188.59;5078191;28;20040;-64